createdAt,value
2023-02-05T00:01:03.464Z,103601.16
2023-02-05T00:03:29.923Z,103609.53
2023-02-05T00:05:56.483Z,103608.47
2023-02-05T00:08:22.921Z,103602.69
2023-02-05T00:10:52.516Z,103598.63
2023-02-05T00:13:19.092Z,103595.13
2023-02-05T00:15:45.477Z,103606.06
2023-02-05T00:18:11.943Z,103605.19
2023-02-05T00:20:38.368Z,103608.34
2023-02-05T00:23:04.885Z,103604.66
2023-02-05T00:25:31.877Z,103593.59
2023-02-05T00:27:58.479Z,103587.50
2023-02-05T00:30:24.906Z,103589.41
2023-02-05T00:32:51.300Z,103593.59
2023-02-05T00:35:17.721Z,103593.28
2023-02-05T00:37:44.251Z,103588.59
2023-02-05T00:40:11.155Z,103608.06
2023-02-05T00:42:37.624Z,103604.84
2023-02-05T00:45:04.319Z,103602.50
2023-02-05T00:47:30.709Z,103595.88
2023-02-05T00:49:57.187Z,103591.63
2023-02-05T00:52:23.588Z,103589.38
2023-02-05T00:54:50.018Z,103591.44
2023-02-05T00:57:16.916Z,103602.44
2023-02-05T00:59:43.322Z,103599.69
2023-02-05T01:02:09.736Z,103598.13
2023-02-05T01:04:36.501Z,103600.63
2023-02-05T01:07:03.194Z,103594.53
2023-02-05T01:09:29.618Z,103589.53
2023-02-05T01:11:56.009Z,103584.84
2023-02-05T01:14:22.419Z,103586.47
2023-02-05T01:16:48.796Z,103588.50
2023-02-05T01:19:15.488Z,103577.47
2023-02-05T01:21:41.938Z,103565.75
2023-02-05T01:24:08.349Z,103560.31
2023-02-05T01:26:34.758Z,103567.47
2023-02-05T01:29:01.201Z,103565.53
2023-02-05T01:31:29.606Z,103559.31
2023-02-05T01:33:56.156Z,103559.03
2023-02-05T01:36:22.630Z,103557.97
2023-02-05T01:38:49.085Z,103558.16
2023-02-05T01:41:15.835Z,103553.28
2023-02-05T01:43:42.252Z,103550.13
2023-02-05T01:46:23.933Z,103545.69
2023-02-05T01:48:54.599Z,103543.59
2023-02-05T01:51:22.398Z,103536.91
2023-02-05T01:53:49.337Z,103527.94
2023-02-05T01:56:21.531Z,103532.94
2023-02-05T01:59:02.664Z,103532.81
2023-02-05T02:01:29.040Z,103519.34
2023-02-05T02:03:57.864Z,103521.09
2023-02-05T02:06:24.309Z,103525.50
2023-02-05T02:08:50.695Z,103516.59
2023-02-05T02:11:20.193Z,103514.44
2023-02-05T02:13:48.799Z,103501.44
2023-02-05T02:16:16.115Z,103494.50
2023-02-05T02:18:43.003Z,103501.88
2023-02-05T02:21:31.339Z,103496.56
2023-02-05T02:24:13.978Z,103484.84
2023-02-05T02:27:02.121Z,103489.03
2023-02-05T02:29:47.952Z,103480.41
2023-02-05T02:32:21.255Z,103475.56
2023-02-05T02:34:51.099Z,103466.22
2023-02-05T02:37:25.240Z,103466.53
2023-02-05T02:40:10.016Z,103454.47
2023-02-05T02:42:45.402Z,103459.34
2023-02-05T02:45:13.436Z,103465.22
2023-02-05T02:47:47.154Z,103468.94
2023-02-05T02:50:22.921Z,103469.31
2023-02-05T02:52:51.741Z,103470.97
2023-02-05T02:55:21.093Z,103476.78
2023-02-05T02:57:51.244Z,103474.88
2023-02-05T03:00:26.485Z,103477.59
2023-02-05T03:03:00.540Z,103476.34
2023-02-05T03:05:29.505Z,103466.16
2023-02-05T03:08:06.018Z,103467.63
2023-02-05T03:10:42.552Z,103477.13
2023-02-05T03:13:10.963Z,103484.38
2023-02-05T03:15:42.378Z,103473.78
2023-02-05T03:18:08.984Z,103472.84
2023-02-05T03:20:42.832Z,103476.69
2023-02-05T03:23:09.296Z,103471.69
2023-02-05T03:25:35.945Z,103477.63
2023-02-05T03:33:11.822Z,103470.69
2023-02-05T03:35:55.873Z,103467.13
2023-02-05T03:38:42.066Z,103460.75
2023-02-05T03:41:49.320Z,103463.13
2023-02-05T03:44:40.475Z,103450.41
2023-02-05T03:47:15.688Z,103456.03
2023-02-05T03:49:53.499Z,103461.88
2023-02-05T03:52:27.197Z,103466.00
2023-02-05T03:55:09.418Z,103473.19
2023-02-05T03:57:44.941Z,103467.34
2023-02-05T04:00:12.914Z,103476.56
2023-02-05T04:02:43.218Z,103483.13
2023-02-05T04:05:12.836Z,103481.03
2023-02-05T04:07:41.394Z,103467.59
2023-02-05T04:10:09.983Z,103470.84
2023-02-05T04:12:37.122Z,103471.94
2023-02-05T04:15:05.030Z,103470.47
2023-02-05T04:17:31.772Z,103474.84
2023-02-05T04:19:58.181Z,103485.38
2023-02-05T04:22:24.638Z,103473.72
2023-02-05T04:24:51.725Z,103482.91
2023-02-05T04:27:18.992Z,103471.94
2023-02-05T04:29:45.855Z,103468.88
2023-02-05T04:32:12.406Z,103470.50
2023-02-05T04:34:39.475Z,103467.25
2023-02-05T04:37:08.848Z,103483.53
2023-02-05T04:39:35.355Z,103478.44
2023-02-05T04:42:01.840Z,103473.56
2023-02-05T04:44:28.687Z,103483.03
2023-02-05T04:46:55.108Z,103479.06
2023-02-05T04:49:21.584Z,103470.22
2023-02-05T04:51:48.137Z,103472.34
2023-02-05T04:54:14.520Z,103464.25
2023-02-05T04:56:40.942Z,103469.19
2023-02-05T04:59:07.378Z,103460.09
2023-02-05T05:01:33.972Z,103458.75
2023-02-05T05:04:00.419Z,103455.50
2023-02-05T05:06:26.847Z,103455.75
2023-02-05T05:08:53.957Z,103451.00
2023-02-05T05:11:20.385Z,103455.38
2023-02-05T05:13:49.178Z,103447.03
2023-02-05T05:16:15.700Z,103456.03
2023-02-05T05:18:42.188Z,103449.66
2023-02-05T05:21:09.099Z,103453.00
2023-02-05T05:23:36.204Z,103460.53
2023-02-05T05:26:07.628Z,103458.38
2023-02-05T05:28:35.142Z,103463.13
2023-02-05T05:31:14.036Z,103470.06
2023-02-05T05:33:40.457Z,103472.56
2023-02-05T05:36:07.109Z,103477.31
2023-02-05T05:38:33.536Z,103479.78
2023-02-05T05:41:18.976Z,103486.00
2023-02-05T05:43:48.403Z,103482.53
2023-02-05T05:46:21.736Z,103491.25
2023-02-05T05:48:50.597Z,103483.91
2023-02-05T05:51:17.394Z,103482.41
2023-02-05T05:53:43.840Z,103461.88
2023-02-05T05:56:10.724Z,103464.25
2023-02-05T05:58:37.395Z,103467.84
2023-02-05T06:01:04.416Z,103470.56
2023-02-05T06:03:30.813Z,103460.63
2023-02-05T06:05:57.265Z,103460.38
2023-02-05T06:08:23.698Z,103453.66
2023-02-05T06:10:50.096Z,103461.00
2023-02-05T06:13:16.481Z,103459.28
2023-02-05T06:15:42.952Z,103464.25
2023-02-05T06:18:09.366Z,103466.75
2023-02-05T06:20:35.756Z,103465.00
2023-02-05T06:23:02.166Z,103461.66
2023-02-05T06:25:28.628Z,103466.97
2023-02-05T06:27:55.119Z,103463.59
2023-02-05T06:30:21.575Z,103460.97
2023-02-05T06:32:48.003Z,103462.22
2023-02-05T06:35:14.468Z,103459.22
2023-02-05T06:37:48.266Z,103469.19
2023-02-05T06:40:18.009Z,103468.22
2023-02-05T06:42:45.307Z,103468.22
2023-02-05T06:45:11.756Z,103470.19
2023-02-05T06:47:38.451Z,103474.44
2023-02-05T06:50:06.935Z,103472.78
2023-02-05T06:52:33.726Z,103477.41
2023-02-05T06:55:00.162Z,103480.84
2023-02-05T06:57:26.594Z,103477.00
2023-02-05T06:59:52.980Z,103479.00
2023-02-05T07:02:19.449Z,103476.66
2023-02-05T07:04:46.086Z,103470.66
2023-02-05T07:07:13.640Z,103469.16
2023-02-05T07:09:40.290Z,103470.63
2023-02-05T07:12:07.170Z,103473.34
2023-02-05T07:14:38.282Z,103473.47
2023-02-05T07:17:04.718Z,103469.47
2023-02-05T07:19:31.119Z,103462.59
2023-02-05T07:21:57.520Z,103460.69
2023-02-05T07:24:24.017Z,103448.75
2023-02-05T07:26:50.421Z,103443.41
2023-02-05T07:29:16.939Z,103449.13
2023-02-05T07:31:43.465Z,103444.84
2023-02-05T07:34:09.948Z,103440.38
2023-02-05T07:36:36.390Z,103440.22
2023-02-05T07:39:02.817Z,103443.00
2023-02-05T07:41:29.240Z,103433.03
2023-02-05T07:43:55.664Z,103433.28
2023-02-05T07:46:22.761Z,103426.47
2023-02-05T07:48:49.415Z,103437.06
2023-02-05T07:51:18.821Z,103441.47
2023-02-05T07:53:45.546Z,103446.31
2023-02-05T07:56:12.255Z,103446.78
2023-02-05T07:58:38.730Z,103428.19
2023-02-05T08:01:05.789Z,103430.94
2023-02-05T08:03:32.458Z,103431.28
2023-02-05T08:05:58.953Z,103433.94
2023-02-05T08:08:25.470Z,103431.88
2023-02-05T08:10:57.029Z,103421.19
2023-02-05T08:13:23.442Z,103421.19
2023-02-05T08:15:49.835Z,103413.94
2023-02-05T08:18:16.241Z,103419.69
2023-02-05T08:20:42.645Z,103410.44
2023-02-05T08:23:09.049Z,103412.25
2023-02-05T08:25:35.772Z,103407.09
2023-02-05T08:28:02.375Z,103407.97
2023-02-05T08:30:28.832Z,103410.75
2023-02-05T08:32:55.244Z,103418.19
2023-02-05T08:35:21.697Z,103416.94
2023-02-05T08:37:48.139Z,103414.38
2023-02-05T08:40:14.636Z,103419.97
2023-02-05T08:42:41.072Z,103420.13
2023-02-05T08:45:09.142Z,103418.56
2023-02-05T08:47:36.172Z,103427.41
2023-02-05T08:50:05.797Z,103417.75
2023-02-05T08:52:32.317Z,103414.84
2023-02-05T08:54:58.903Z,103417.47
2023-02-05T08:57:30.003Z,103417.28
2023-02-05T08:59:56.434Z,103416.44
2023-02-05T09:02:23.217Z,103416.16
2023-02-05T09:04:51.431Z,103414.66
2023-02-05T09:07:20.890Z,103415.84
2023-02-05T09:09:47.320Z,103417.47
2023-02-05T09:12:13.791Z,103421.25
2023-02-05T09:14:40.987Z,103414.88
2023-02-05T09:17:09.307Z,103415.34
2023-02-05T09:19:37.677Z,103411.84
2023-02-05T09:22:04.311Z,103414.19
2023-02-05T09:24:30.716Z,103418.13
2023-02-05T09:26:57.125Z,103422.88
2023-02-05T09:29:23.786Z,103414.06
2023-02-05T09:31:50.275Z,103411.88
2023-02-05T09:34:16.681Z,103418.13
2023-02-05T09:36:43.097Z,103417.25
2023-02-05T09:39:20.593Z,103430.28
2023-02-05T09:42:04.921Z,103428.97
2023-02-05T09:44:53.216Z,103432.31
2023-02-05T09:47:56.187Z,103422.03
2023-02-05T09:50:29.512Z,103426.81
2023-02-05T09:53:08.666Z,103420.75
2023-02-05T09:55:42.395Z,103414.38
2023-02-05T09:58:16.294Z,103417.41
2023-02-05T10:00:49.312Z,103411.03
2023-02-05T10:03:28.065Z,103412.94
2023-02-05T10:06:25.619Z,103406.41
2023-02-05T10:09:05.178Z,103398.28
2023-02-05T10:11:41.702Z,103396.97
2023-02-05T10:14:30.356Z,103400.75
2023-02-05T10:17:29.465Z,103385.38
2023-02-05T10:20:21.527Z,103390.56
2023-02-05T10:23:16.609Z,103390.88
2023-02-05T10:25:54.151Z,103383.78
2023-02-05T10:28:45.541Z,103384.94
2023-02-05T10:31:39.358Z,103375.69
2023-02-05T10:34:15.206Z,103365.38
2023-02-05T10:36:43.403Z,103357.56
2023-02-05T10:39:15.366Z,103360.00
2023-02-05T10:41:50.209Z,103365.31
2023-02-05T10:44:44.022Z,103359.06
2023-02-05T10:47:16.188Z,103356.72
2023-02-05T10:49:50.536Z,103354.38
2023-02-05T10:52:17.333Z,103347.88
2023-02-05T10:54:45.216Z,103338.34
2023-02-05T10:57:17.788Z,103343.81
2023-02-05T11:00:02.109Z,103332.34
2023-02-05T11:02:38.312Z,103330.56
2023-02-05T11:05:18.958Z,103335.78
2023-02-05T11:07:47.799Z,103332.34
2023-02-05T11:10:27.695Z,103332.47
2023-02-05T11:13:02.000Z,103333.53
2023-02-05T11:15:31.010Z,103337.47
2023-02-05T11:18:03.198Z,103347.84
2023-02-05T11:20:34.427Z,103346.13
2023-02-05T11:23:18.592Z,103350.88
2023-02-05T11:25:57.173Z,103345.91
2023-02-05T11:28:32.756Z,103342.47
2023-02-05T11:31:27.044Z,103344.44
2023-02-05T11:34:08.447Z,103336.47
2023-02-05T11:36:36.312Z,103340.66
2023-02-05T11:39:05.155Z,103344.66
2023-02-05T11:41:51.780Z,103342.38
2023-02-05T11:44:23.188Z,103337.09
2023-02-05T11:46:56.778Z,103337.97
2023-02-05T11:49:30.914Z,103335.28
2023-02-05T11:51:58.375Z,103331.41
2023-02-05T11:54:33.893Z,103335.19
2023-02-05T11:57:07.146Z,103337.94
2023-02-05T11:59:35.369Z,103342.38
2023-02-05T12:02:25.728Z,103352.94
2023-02-05T12:04:58.293Z,103349.94
2023-02-05T12:07:26.658Z,103343.03
2023-02-05T12:09:58.959Z,103339.09
2023-02-05T12:12:37.674Z,103328.78
2023-02-05T12:15:22.970Z,103330.03
2023-02-05T12:17:58.433Z,103330.03
2023-02-05T12:20:33.246Z,103334.03
2023-02-05T12:23:30.749Z,103335.75
2023-02-05T12:26:35.012Z,103337.84
2023-02-05T12:29:29.550Z,103326.94
2023-02-05T12:32:16.661Z,103324.91
2023-02-05T12:35:13.601Z,103321.91
2023-02-05T12:37:55.910Z,103316.44
2023-02-05T12:40:49.754Z,103321.69
2023-02-05T12:43:31.150Z,103314.31
2023-02-05T12:45:57.538Z,103316.16
2023-02-05T12:48:55.441Z,103320.56
2023-02-05T12:51:27.451Z,103326.00
2023-02-05T12:54:30.921Z,103321.06
2023-02-05T12:57:08.717Z,103330.78
2023-02-05T12:59:55.733Z,103339.22
2023-02-05T13:02:49.546Z,103344.53
2023-02-05T13:05:21.776Z,103339.66
2023-02-05T13:08:00.540Z,103341.91
2023-02-05T13:10:57.561Z,103343.13
2023-02-05T13:13:30.299Z,103340.06
2023-02-05T13:16:02.837Z,103336.63
2023-02-05T13:18:34.175Z,103333.09
2023-02-05T13:21:24.507Z,103330.03
2023-02-05T13:24:12.635Z,103337.91
2023-02-05T13:27:01.375Z,103331.22
2023-02-05T13:29:32.773Z,103328.53
2023-02-05T13:32:15.356Z,103337.91
2023-02-05T13:34:43.167Z,103354.53
2023-02-05T13:37:39.992Z,103362.59
2023-02-05T13:40:28.165Z,103356.66
2023-02-05T13:43:11.868Z,103364.91
2023-02-05T13:46:04.219Z,103366.19
2023-02-05T13:48:49.942Z,103372.56
2023-02-05T13:51:38.860Z,103376.81
2023-02-05T13:54:33.414Z,103382.63
2023-02-05T13:57:04.209Z,103376.75
2023-02-05T13:59:46.552Z,103366.22
2023-02-05T14:02:37.117Z,103353.38
2023-02-05T14:05:05.054Z,103346.66
2023-02-05T14:07:35.383Z,103345.50
2023-02-05T14:11:06.594Z,103344.00
2023-02-05T14:13:34.584Z,103350.19
2023-02-05T14:16:32.821Z,103358.56
2023-02-05T14:19:02.168Z,103359.09
2023-02-05T14:21:31.599Z,103351.22
2023-02-05T14:24:00.231Z,103335.34
2023-02-05T14:26:59.570Z,103338.66
2023-02-05T14:29:44.208Z,103332.81
2023-02-05T14:32:29.665Z,103317.50
2023-02-05T14:35:18.542Z,103311.06
2023-02-05T14:37:48.341Z,103306.50
2023-02-05T14:40:25.706Z,103311.84
2023-02-05T14:43:08.496Z,103320.25
2023-02-05T14:45:46.345Z,103313.66
2023-02-05T14:48:27.065Z,103320.16
2023-02-05T14:51:02.881Z,103318.41
2023-02-05T14:53:31.225Z,103321.16
2023-02-05T14:55:57.853Z,103326.69
2023-02-05T14:58:30.921Z,103331.81
2023-02-05T15:01:29.592Z,103335.22
2023-02-05T15:03:58.933Z,103340.44
2023-02-05T15:06:28.472Z,103339.34
2023-02-05T15:09:04.912Z,103342.25
2023-02-05T15:11:57.449Z,103354.38
2023-02-05T15:14:34.436Z,103356.50
2023-02-05T15:17:06.889Z,103359.66
2023-02-05T15:19:37.683Z,103367.28
2023-02-05T15:22:05.323Z,103372.47
2023-02-05T15:24:35.701Z,103375.94
2023-02-05T15:27:06.873Z,103376.25
2023-02-05T15:29:42.777Z,103376.66
2023-02-05T15:32:29.680Z,103376.50
2023-02-05T15:35:04.875Z,103369.03
2023-02-05T15:37:38.500Z,103381.22
2023-02-05T15:40:28.387Z,103391.00
2023-02-05T15:43:09.443Z,103384.88
2023-02-05T15:45:44.748Z,103375.63
2023-02-05T15:48:11.096Z,103375.75
2023-02-05T15:50:58.017Z,103392.75
2023-02-05T15:53:35.912Z,103406.84
2023-02-05T15:56:16.298Z,103415.69
2023-02-05T15:58:50.107Z,103420.38
2023-02-05T16:01:29.548Z,103409.09
2023-02-05T16:03:56.099Z,103415.72
2023-02-05T16:06:24.668Z,103422.34
2023-02-05T16:08:52.514Z,103421.94
2023-02-05T16:11:33.586Z,103421.72
2023-02-05T16:14:11.299Z,103420.44
2023-02-05T16:16:40.073Z,103410.69
2023-02-05T16:19:14.292Z,103402.72
2023-02-05T16:21:46.772Z,103390.13
2023-02-05T16:24:29.080Z,103383.50
2023-02-05T16:27:01.785Z,103384.84
2023-02-05T16:29:46.151Z,103372.75
2023-02-05T16:32:42.454Z,103375.66
2023-02-05T16:35:22.019Z,103384.97
2023-02-05T16:37:48.482Z,103393.41
2023-02-05T16:40:14.977Z,103382.31
2023-02-05T16:42:44.217Z,103392.25
2023-02-05T16:45:10.570Z,103395.63
2023-02-05T16:47:37.477Z,103397.91
2023-02-05T16:50:38.098Z,103399.50
2023-02-05T16:53:14.118Z,103390.19
2023-02-05T16:55:43.311Z,103394.97
2023-02-05T16:58:22.350Z,103393.88
2023-02-05T17:00:58.600Z,103397.81
2023-02-05T17:03:27.152Z,103396.06
2023-02-05T17:06:00.486Z,103393.38
2023-02-05T17:08:30.883Z,103395.97
2023-02-05T17:11:00.244Z,103400.47
2023-02-05T17:13:37.650Z,103397.09
2023-02-05T17:16:31.207Z,103393.94
2023-02-05T17:19:00.833Z,103400.31
2023-02-05T17:21:31.390Z,103398.81
2023-02-05T17:23:59.752Z,103408.44
2023-02-05T17:26:30.701Z,103409.28
2023-02-05T17:29:00.666Z,103400.19
2023-02-05T17:31:29.233Z,103413.22
2023-02-05T17:33:58.211Z,103425.59
2023-02-05T17:36:25.227Z,103425.59
2023-02-05T17:38:52.939Z,103427.47
2023-02-05T17:41:41.883Z,103435.16
2023-02-05T17:44:13.364Z,103442.91
2023-02-05T17:46:40.356Z,103447.03
2023-02-05T17:49:06.781Z,103450.00
2023-02-05T17:51:33.389Z,103445.22
2023-02-05T17:54:00.010Z,103439.47
2023-02-05T17:56:26.864Z,103434.09
2023-02-05T17:58:55.640Z,103435.81
2023-02-05T18:01:22.156Z,103446.28
2023-02-05T18:03:48.644Z,103458.47
2023-02-05T18:06:18.253Z,103465.13
2023-02-05T18:08:45.258Z,103472.41
2023-02-05T18:11:11.697Z,103479.97
2023-02-05T18:13:38.138Z,103484.91
2023-02-05T18:16:04.817Z,103504.47
2023-02-05T18:18:32.657Z,103504.34
2023-02-05T18:20:59.202Z,103490.09
2023-02-05T18:23:29.010Z,103495.50
2023-02-05T18:25:57.417Z,103502.31
2023-02-05T18:28:23.889Z,103492.13
2023-02-05T18:31:01.125Z,103502.31
2023-02-05T18:33:28.115Z,103494.66
2023-02-05T18:35:58.969Z,103502.06
2023-02-05T18:38:25.435Z,103506.44
2023-02-05T18:40:51.868Z,103506.84
2023-02-05T18:43:18.638Z,103520.63
2023-02-05T18:45:45.102Z,103513.97
2023-02-05T18:48:11.665Z,103518.59
2023-02-05T18:50:38.122Z,103512.06
2023-02-05T18:53:04.570Z,103505.53
2023-02-05T18:55:35.364Z,103512.78
2023-02-05T18:58:03.528Z,103514.25
2023-02-05T19:00:30.313Z,103521.78
2023-02-05T19:02:57.411Z,103522.03
2023-02-05T19:05:23.884Z,103526.97
2023-02-05T19:07:50.279Z,103529.44
2023-02-05T19:10:18.093Z,103524.94
2023-02-05T19:12:44.519Z,103530.31
2023-02-05T19:15:10.926Z,103528.28
2023-02-05T19:17:37.360Z,103540.72
2023-02-05T19:20:05.887Z,103542.28
2023-02-05T19:22:32.328Z,103535.50
2023-02-05T19:24:58.731Z,103541.00
2023-02-05T19:27:25.154Z,103526.94
2023-02-05T19:29:51.560Z,103523.09
2023-02-05T19:32:17.997Z,103524.38
2023-02-05T19:34:46.451Z,103510.09
2023-02-05T19:37:12.931Z,103505.03
2023-02-05T19:39:39.361Z,103491.84
2023-02-05T19:42:07.056Z,103491.53
2023-02-05T19:44:33.545Z,103487.22
2023-02-05T19:46:59.969Z,103488.00
2023-02-05T19:49:26.413Z,103500.13
2023-02-05T19:51:55.327Z,103509.69
2023-02-05T19:54:22.239Z,103507.91
2023-02-05T19:56:49.125Z,103519.19
2023-02-05T19:59:16.745Z,103511.59
2023-02-05T20:01:45.588Z,103519.19
2023-02-05T20:04:24.734Z,103526.25
2023-02-05T20:06:55.985Z,103519.88
2023-02-05T20:09:23.362Z,103507.81
2023-02-05T20:11:52.699Z,103500.91
2023-02-05T20:14:19.912Z,103502.06
2023-02-05T20:16:46.881Z,103505.69
2023-02-05T20:19:15.600Z,103495.97
2023-02-05T20:21:42.650Z,103503.16
2023-02-05T20:24:09.440Z,103506.75
2023-02-05T20:26:37.144Z,103502.03
2023-02-05T20:29:22.763Z,103504.59
2023-02-05T20:31:51.757Z,103509.88
2023-02-05T20:34:25.587Z,103496.28
2023-02-05T20:36:54.600Z,103499.56
2023-02-05T20:39:22.693Z,103505.06
2023-02-05T20:41:51.406Z,103513.44
2023-02-05T20:44:18.362Z,103509.88
2023-02-05T20:46:45.175Z,103516.03
2023-02-05T20:49:11.912Z,103511.88
2023-02-05T20:51:38.610Z,103518.38
2023-02-05T20:54:05.281Z,103528.34
2023-02-05T20:56:32.387Z,103539.63
2023-02-05T20:59:00.260Z,103538.81
2023-02-05T21:01:28.483Z,103543.00
2023-02-05T21:03:58.186Z,103545.78
2023-02-05T21:06:25.553Z,103554.09
2023-02-05T21:08:52.902Z,103561.09
2023-02-05T21:11:21.435Z,103565.00
2023-02-05T21:13:49.101Z,103569.81
2023-02-05T21:16:17.158Z,103581.34
2023-02-05T21:18:45.460Z,103587.41
2023-02-05T21:21:15.347Z,103581.56
2023-02-05T21:23:43.110Z,103584.34
2023-02-05T21:26:21.855Z,103594.94
2023-02-05T21:28:48.591Z,103595.78
2023-02-05T21:31:15.161Z,103591.09
2023-02-05T21:33:41.685Z,103586.66
2023-02-05T21:36:10.210Z,103594.13
2023-02-05T21:38:38.320Z,103597.72
2023-02-05T21:41:13.243Z,103601.84
2023-02-05T21:43:39.734Z,103612.44
2023-02-05T21:46:08.478Z,103626.13
2023-02-05T21:48:35.140Z,103627.59
2023-02-05T21:51:09.429Z,103625.25
2023-02-05T21:53:36.235Z,103621.38
2023-02-05T21:56:04.862Z,103620.00
2023-02-05T21:58:32.963Z,103632.09
2023-02-05T22:01:19.617Z,103631.00
2023-02-05T22:03:52.015Z,103629.88
2023-02-05T22:06:19.820Z,103623.53
2023-02-05T22:08:48.139Z,103624.53
2023-02-05T22:11:15.078Z,103613.44
2023-02-05T22:13:43.702Z,103606.13
2023-02-05T22:16:18.949Z,103601.50
2023-02-05T22:18:46.057Z,103607.34
2023-02-05T22:21:16.518Z,103598.59
2023-02-05T22:23:44.280Z,103591.53
2023-02-05T22:26:11.999Z,103594.41
2023-02-05T22:28:38.424Z,103587.56
2023-02-05T22:31:13.587Z,103595.03
2023-02-05T22:33:42.275Z,103598.88
2023-02-05T22:36:10.170Z,103600.66
2023-02-05T22:38:38.243Z,103594.16
2023-02-05T22:41:12.972Z,103582.44
2023-02-05T22:43:39.895Z,103579.19
2023-02-05T22:46:14.185Z,103586.44
2023-02-05T22:48:42.835Z,103584.19
2023-02-05T22:51:13.160Z,103589.91
2023-02-05T22:53:40.170Z,103578.84
2023-02-05T22:56:09.380Z,103568.50
2023-02-05T22:58:38.579Z,103574.13
2023-02-05T23:01:13.400Z,103568.00
2023-02-05T23:03:40.392Z,103583.97
2023-02-05T23:06:12.630Z,103572.50
2023-02-05T23:08:39.125Z,103573.38
2023-02-05T23:11:13.363Z,103569.00
2023-02-05T23:13:41.377Z,103570.13
2023-02-05T23:16:13.642Z,103562.53
2023-02-05T23:18:41.854Z,103565.16
2023-02-05T23:21:14.041Z,103557.91
2023-02-05T23:23:40.516Z,103547.09
2023-02-05T23:26:18.977Z,103545.84
2023-02-05T23:28:45.912Z,103544.63
2023-02-05T23:31:12.700Z,103551.84
2023-02-05T23:33:39.444Z,103557.41
2023-02-05T23:36:07.607Z,103546.34
2023-02-05T23:38:34.433Z,103543.38
2023-02-05T23:41:01.180Z,103549.34
2023-02-05T23:43:27.735Z,103540.13
2023-02-05T23:45:54.744Z,103543.72
2023-02-05T23:48:21.187Z,103555.31
2023-02-05T23:50:56.829Z,103548.97
2023-02-05T23:53:23.454Z,103552.09
2023-02-05T23:55:51.407Z,103553.09
2023-02-05T23:58:19.718Z,103557.81
